KGSO/GSO METAR and TAF weather

Enter ICAO airport designator
Station Type Date Time Source
KGSO METAR 2022/08/16 19:54 UTC NOAA

KGSO 161954Z 04007KT 10SM BKN026 OVC100 23/17 A2997 RMK AO2 SLP141 T02280167


Station Type Date Time Source
KGSO Decoded METAR 2022/08/16 19:54 UTC NOAA

PIEDMONT TRIAD INTERNATIONAL AIRPORT , NC, United States (KGSO) 36-06N 079-57W 275M
Aug 16, 2022 - 03:54 PM EDT / 2022.08.16 1954 UTC
Wind: from the NE (040 degrees) at 8 MPH (7 KT):0
Visibility: 10 mile(s):0
Sky conditions: overcast
Temperature: 73.0 F (22.8 C)
Dew Point: 62.1 F (16.7 C)
Relative Humidity: 68%
Pressure (altimeter): 29.97 in. Hg (1014 hPa)
ob: KGSO 161954Z 04007KT 10SM BKN026 OVC100 23/17 A2997 RMK AO2 SLP141 T02280167
cycle: 20

Station Type Date Time Source
KGSO TAF 2022/08/16 18:24 UTC NOAA

TAF KGSO 161720Z 1618/1718 04008KT P6SM BKN018 BKN250
FM161900 04008KT P6SM BKN022 BKN250
FM162100 03004KT P6SM SCT028 BKN045 BKN250

Example: see airport list